Time,TemperatureF,DewpointF,PressureIn,WindDirection,WindDirectionDegrees,WindSpeedMPH,WindSpeedGustMPH,Humidity,HourlyPrecipIn,Conditions,Clouds,dailyrainin,SoftwareType,DateUTC
2013-01-27 00:01:00,36.0,28.0,29.97,SSE,153,6.0,16.0,73,0.00,,,0.00,,2013-01-27 06:01:00,
2013-01-27 00:11:00,36.0,28.0,29.97,SSE,153,6.0,16.0,73,0.00,,,0.00,,2013-01-27 06:11:00,
2013-01-27 00:21:00,36.0,29.0,29.96,South,180,6.0,12.0,74,0.00,,,0.00,,2013-01-27 06:21:00,
2013-01-27 00:31:00,36.0,29.0,29.96,SSE,154,7.0,13.0,74,0.00,,,0.00,,2013-01-27 06:31:00,
2013-01-27 00:41:00,36.0,29.0,29.96,SSE,154,7.0,13.0,74,0.00,,,0.00,,2013-01-27 06:41:00,
2013-01-27 00:52:00,36.0,29.0,29.96,SSE,164,8.0,15.0,74,0.00,,,0.00,,2013-01-27 06:52:00,
2013-01-27 01:01:00,36.0,29.0,29.96,SSE,166,6.0,12.0,74,0.00,,,0.00,,2013-01-27 07:01:00,
2013-01-27 01:13:00,36.0,29.0,29.96,SSE,166,6.0,12.0,74,0.00,,,0.00,,2013-01-27 07:13:00,
2013-01-27 01:21:00,36.0,29.0,29.95,SSE,157,8.0,12.0,74,0.00,,,0.00,,2013-01-27 07:21:00,
2013-01-27 01:31:00,36.0,29.0,29.94,SSE,162,7.0,12.0,74,0.00,,,0.00,,2013-01-27 07:31:00,
2013-01-27 01:41:00,36.0,29.0,29.94,SSE,162,7.0,12.0,74,0.00,,,0.00,,2013-01-27 07:41:00,
2013-01-27 01:52:00,36.0,29.0,29.94,SSE,155,10.0,13.0,74,0.00,,,0.00,,2013-01-27 07:52:00,
2013-01-27 02:01:00,36.0,29.0,29.93,SSE,147,5.0,8.0,74,0.00,,,0.00,,2013-01-27 08:01:00,
2013-01-27 02:11:00,36.0,29.0,29.93,SSE,147,5.0,8.0,74,0.00,,,0.00,,2013-01-27 08:11:00,
2013-01-27 02:22:00,37.0,29.0,29.93,SSW,197,3.0,9.0,73,0.00,,,0.00,,2013-01-27 08:22:00,
2013-01-27 02:31:00,36.0,28.0,29.93,SSE,151,7.0,10.0,73,0.00,,,0.00,,2013-01-27 08:31:00,
2013-01-27 02:42:00,36.0,28.0,29.93,SSE,151,7.0,10.0,73,0.00,,,0.00,,2013-01-27 08:42:00,
2013-01-27 02:52:00,37.0,29.0,29.92,SE,145,7.0,9.0,73,0.00,,,0.00,,2013-01-27 08:52:00,
2013-01-27 03:02:00,37.0,29.0,29.93,SSE,151,7.0,10.0,73,0.00,,,0.00,,2013-01-27 09:02:00,
2013-01-27 03:11:00,37.0,29.0,29.93,SSE,151,7.0,10.0,73,0.00,,,0.00,,2013-01-27 09:11:00,
2013-01-27 03:21:00,37.0,29.0,29.92,SSE,161,7.0,9.0,73,0.00,,,0.00,,2013-01-27 09:21:00,
2013-01-27 03:32:00,37.0,29.0,29.92,SSE,167,6.0,14.0,73,0.00,,,0.00,,2013-01-27 09:32:00,
2013-01-27 03:41:00,37.0,29.0,29.92,SSE,167,6.0,14.0,73,0.00,,,0.00,,2013-01-27 09:41:00,
2013-01-27 03:52:00,37.0,29.0,29.91,SSE,167,6.0,13.0,73,0.00,,,0.00,,2013-01-27 09:52:00,
2013-01-27 04:01:00,37.0,29.0,29.91,SSE,158,5.0,12.0,73,0.00,,,0.00,,2013-01-27 10:01:00,
2013-01-27 04:11:00,37.0,29.0,29.90,SSE,147,9.0,15.0,72,0.00,,,0.00,,2013-01-27 10:11:00,
2013-01-27 04:21:00,37.0,29.0,29.90,SSE,147,9.0,15.0,72,0.00,,,0.00,,2013-01-27 10:21:00,
2013-01-27 04:31:00,37.0,29.0,29.89,SE,140,12.0,15.0,72,0.00,,,0.00,,2013-01-27 10:31:00,
2013-01-27 04:41:00,37.0,29.0,29.89,SE,140,12.0,15.0,72,0.00,,,0.00,,2013-01-27 10:41:00,
2013-01-27 04:52:00,37.0,29.0,29.89,SSE,147,7.0,12.0,72,0.00,,,0.00,,2013-01-27 10:52:00,
2013-01-27 05:01:00,37.0,29.0,29.88,SSE,152,7.0,10.0,72,0.00,,,0.00,,2013-01-27 11:01:00,
2013-01-27 05:11:00,36.0,28.0,29.88,SE,145,8.0,15.0,73,0.00,,,0.00,,2013-01-27 11:11:00,
2013-01-27 05:21:00,36.0,28.0,29.88,SE,145,8.0,15.0,73,0.00,,,0.00,,2013-01-27 11:21:00,
2013-01-27 05:32:00,37.0,29.0,29.88,SSE,156,7.0,10.0,74,0.00,,,0.00,,2013-01-27 11:32:00,
2013-01-27 05:42:00,37.0,29.0,29.88,SSE,156,7.0,10.0,74,0.00,,,0.00,,2013-01-27 11:42:00,
2013-01-27 05:52:00,36.0,32.0,29.86,South,175,7.0,12.0,86,0.01,,,0.01,,2013-01-27 11:52:00,
2013-01-27 06:02:00,35.0,33.0,29.86,SSE,163,5.0,9.0,92,0.01,,,0.01,,2013-01-27 12:02:00,
2013-01-27 06:11:00,35.0,33.0,29.86,SSE,163,5.0,9.0,92,0.01,,,0.01,,2013-01-27 12:11:00,
2013-01-27 06:21:00,35.0,34.0,29.86,SSE,159,6.0,12.0,98,0.02,,,0.02,,2013-01-27 12:21:00,
2013-01-27 06:32:00,35.0,35.0,29.85,SSE,160,6.0,12.0,99,0.02,,,0.02,,2013-01-27 12:32:00,
2013-01-27 06:42:00,35.0,35.0,29.85,SSE,160,6.0,12.0,99,0.02,,,0.02,,2013-01-27 12:42:00,
2013-01-27 06:52:00,35.0,35.0,29.84,South,169,7.0,10.0,99,0.02,,,0.03,,2013-01-27 12:52:00,
2013-01-27 07:02:00,35.0,35.0,29.84,SSE,166,9.0,13.0,99,0.02,,,0.03,,2013-01-27 13:02:00,
2013-01-27 07:11:00,35.0,35.0,29.84,SSE,166,9.0,13.0,99,0.02,,,0.03,,2013-01-27 13:11:00,
2013-01-27 07:22:00,35.0,35.0,29.85,SSE,159,7.0,14.0,99,0.01,,,0.03,,2013-01-27 13:22:00,
2013-01-27 07:32:00,35.0,35.0,29.84,SSE,148,8.0,15.0,99,0.01,,,0.03,,2013-01-27 13:32:00,
2013-01-27 07:42:00,35.0,35.0,29.84,SE,138,8.0,15.0,99,0.01,,,0.04,,2013-01-27 13:42:00,
2013-01-27 07:52:00,35.0,35.0,29.84,SE,138,8.0,15.0,99,0.01,,,0.04,,2013-01-27 13:52:00,
2013-01-27 08:01:00,35.0,35.0,29.83,SSE,152,7.0,13.0,99,0.01,,,0.04,,2013-01-27 14:01:00,
2013-01-27 08:11:00,35.0,35.0,29.83,SSE,152,7.0,13.0,99,0.01,,,0.04,,2013-01-27 14:11:00,
2013-01-27 08:22:00,35.0,35.0,29.84,SSE,163,6.0,10.0,99,0.01,,,0.04,,2013-01-27 14:22:00,
2013-01-27 08:32:00,35.0,35.0,29.84,South,173,6.0,9.0,99,0.01,,,0.04,,2013-01-27 14:32:00,
2013-01-27 08:42:00,35.0,35.0,29.84,South,173,6.0,9.0,99,0.01,,,0.04,,2013-01-27 14:42:00,
2013-01-27 08:53:00,35.0,35.0,29.83,South,169,5.0,8.0,99,0.00,,,0.04,,2013-01-27 14:53:00,
2013-01-27 09:02:00,35.0,35.0,29.83,SSE,151,9.0,12.0,99,0.00,,,0.04,,2013-01-27 15:02:00,
2013-01-27 09:11:00,35.0,35.0,29.83,SSE,151,9.0,12.0,99,0.00,,,0.04,,2013-01-27 15:11:00,
2013-01-27 09:22:00,35.0,35.0,29.83,SSE,155,7.0,9.0,99,0.00,,,0.04,,2013-01-27 15:22:00,
2013-01-27 09:32:00,35.0,35.0,29.82,SSE,149,6.0,10.0,99,0.00,,,0.04,,2013-01-27 15:32:00,
2013-01-27 09:42:00,35.0,35.0,29.82,SSE,149,6.0,10.0,99,0.00,,,0.04,,2013-01-27 15:42:00,
2013-01-27 09:53:00,35.0,35.0,29.82,SSE,155,6.0,9.0,99,0.01,,,0.05,,2013-01-27 15:53:00,
2013-01-27 10:02:00,35.0,35.0,29.82,SSE,165,6.0,9.0,99,0.01,,,0.05,,2013-01-27 16:02:00,
2013-01-27 10:11:00,35.0,35.0,29.82,SSE,165,6.0,9.0,99,0.01,,,0.05,,2013-01-27 16:11:00,
2013-01-27 10:21:00,35.0,35.0,29.81,SSE,166,9.0,15.0,99,0.01,,,0.05,,2013-01-27 16:21:00,
2013-01-27 10:32:00,35.0,35.0,29.81,SSE,149,8.0,10.0,99,0.01,,,0.05,,2013-01-27 16:32:00,
2013-01-27 10:42:00,35.0,35.0,29.81,SSE,149,8.0,10.0,99,0.01,,,0.05,,2013-01-27 16:42:00,
2013-01-27 10:53:00,35.0,35.0,29.80,SE,137,8.0,10.0,99,0.00,,,0.05,,2013-01-27 16:53:00,
2013-01-27 11:01:00,36.0,36.0,29.80,SSE,151,7.0,10.0,99,0.00,,,0.05,,2013-01-27 17:01:00,
2013-01-27 11:12:00,36.0,36.0,29.80,SSE,151,7.0,10.0,99,0.00,,,0.05,,2013-01-27 17:12:00,
2013-01-27 11:22:00,35.0,35.0,29.80,SE,146,7.0,10.0,99,0.00,,,0.05,,2013-01-27 17:22:00,
2013-01-27 11:32:00,36.0,36.0,29.80,SSE,156,7.0,8.0,99,0.00,,,0.05,,2013-01-27 17:32:00,
2013-01-27 11:42:00,36.0,36.0,29.80,SSE,156,7.0,8.0,99,0.00,,,0.05,,2013-01-27 17:42:00,
2013-01-27 11:52:00,36.0,36.0,29.79,SE,142,7.0,9.0,99,0.00,,,0.05,,2013-01-27 17:52:00,
2013-01-27 12:02:00,35.0,35.0,29.79,SSE,147,8.0,10.0,99,0.00,,,0.05,,2013-01-27 18:02:00,
2013-01-27 12:11:00,35.0,35.0,29.79,SSE,147,8.0,10.0,99,0.00,,,0.05,,2013-01-27 18:11:00,
2013-01-27 12:22:00,36.0,36.0,29.78,SSE,151,7.0,7.0,99,0.00,,,0.05,,2013-01-27 18:22:00,
2013-01-27 12:32:00,36.0,36.0,29.78,SSE,150,5.0,9.0,99,0.00,,,0.05,,2013-01-27 18:32:00,
2013-01-27 12:42:00,36.0,36.0,29.78,SSE,150,5.0,9.0,99,0.00,,,0.05,,2013-01-27 18:42:00,
2013-01-27 12:52:00,36.0,36.0,29.76,South,188,5.0,8.0,99,0.00,,,0.05,,2013-01-27 18:52:00,
2013-01-27 13:02:00,36.0,36.0,29.75,SSE,148,7.0,8.0,99,0.00,,,0.05,,2013-01-27 19:02:00,
2013-01-27 13:11:00,36.0,36.0,29.75,SSE,148,7.0,8.0,99,0.00,,,0.05,,2013-01-27 19:11:00,
2013-01-27 13:22:00,36.0,36.0,29.75,SE,144,6.0,8.0,99,0.00,,,0.05,,2013-01-27 19:22:00,
2013-01-27 13:32:00,36.0,36.0,29.74,SE,146,6.0,8.0,99,0.00,,,0.05,,2013-01-27 19:32:00,
2013-01-27 13:42:00,36.0,36.0,29.74,SE,146,6.0,8.0,99,0.00,,,0.05,,2013-01-27 19:42:00,
2013-01-27 13:52:00,36.0,36.0,29.73,SSE,157,5.0,6.0,99,0.00,,,0.05,,2013-01-27 19:52:00,
2013-01-27 14:02:00,36.0,36.0,29.72,SSE,148,6.0,9.0,99,0.00,,,0.05,,2013-01-27 20:02:00,
2013-01-27 14:11:00,36.0,36.0,29.72,SSE,148,6.0,9.0,99,0.00,,,0.05,,2013-01-27 20:11:00,
2013-01-27 14:22:00,36.0,36.0,29.72,SE,138,5.0,7.0,99,0.00,,,0.05,,2013-01-27 20:22:00,
2013-01-27 14:32:00,36.0,36.0,29.71,SE,142,6.0,7.0,99,0.00,,,0.05,,2013-01-27 20:32:00,
2013-01-27 14:42:00,36.0,36.0,29.71,SE,142,6.0,7.0,99,0.00,,,0.05,,2013-01-27 20:42:00,
2013-01-27 14:52:00,36.0,36.0,29.71,SSE,155,5.0,7.0,99,0.00,,,0.05,,2013-01-27 20:52:00,
2013-01-27 15:02:00,36.0,36.0,29.71,SE,142,2.0,3.0,99,0.00,,,0.05,,2013-01-27 21:02:00,
2013-01-27 15:12:00,36.0,36.0,29.71,SE,142,2.0,3.0,99,0.00,,,0.05,,2013-01-27 21:12:00,
2013-01-27 15:22:00,36.0,36.0,29.71,SE,144,5.0,7.0,99,0.00,,,0.05,,2013-01-27 21:22:00,
2013-01-27 15:32:00,37.0,37.0,29.70,SE,144,6.0,9.0,99,0.00,,,0.05,,2013-01-27 21:32:00,
2013-01-27 15:42:00,37.0,37.0,29.70,SE,144,6.0,9.0,99,0.00,,,0.05,,2013-01-27 21:42:00,
2013-01-27 15:52:00,37.0,37.0,29.71,SE,146,5.0,6.0,99,0.00,,,0.05,,2013-01-27 21:52:00,
2013-01-27 16:02:00,37.0,37.0,29.71,SSE,159,3.0,6.0,99,0.00,,,0.05,,2013-01-27 22:02:00,
2013-01-27 16:11:00,37.0,37.0,29.71,SSE,159,3.0,6.0,99,0.00,,,0.05,,2013-01-27 22:11:00,
2013-01-27 16:22:00,37.0,37.0,29.71,SSE,150,1.0,2.0,99,0.00,,,0.05,,2013-01-27 22:22:00,
2013-01-27 16:32:00,37.0,37.0,29.71,SSE,147,0.0,1.0,99,0.00,,,0.05,,2013-01-27 22:32:00,
2013-01-27 16:42:00,37.0,37.0,29.71,SSE,147,0.0,1.0,99,0.00,,,0.05,,2013-01-27 22:42:00,
2013-01-27 16:52:00,37.0,37.0,29.71,South,171,1.0,3.0,99,0.00,,,0.05,,2013-01-27 22:52:00,
2013-01-27 17:02:00,37.0,37.0,29.71,SE,140,0.0,0.0,99,0.00,,,0.05,,2013-01-27 23:02:00,
2013-01-27 17:12:00,37.0,37.0,29.71,SE,140,0.0,0.0,99,0.00,,,0.05,,2013-01-27 23:12:00,
2013-01-27 17:21:00,37.0,37.0,29.72,SSE,164,0.0,0.0,99,0.00,,,0.05,,2013-01-27 23:21:00,
2013-01-27 17:32:00,37.0,37.0,29.72,SSE,164,0.0,0.0,99,0.00,,,0.05,,2013-01-27 23:32:00,
2013-01-27 17:41:00,37.0,37.0,29.72,SSE,164,0.0,0.0,99,0.00,,,0.05,,2013-01-27 23:41:00,
2013-01-27 17:53:00,37.0,37.0,29.72,SSE,164,0.0,0.0,99,0.00,,,0.05,,2013-01-27 23:53:00,
2013-01-27 18:01:00,37.0,37.0,29.72,SSE,164,0.0,0.0,99,0.00,,,0.05,,2013-01-28 00:01:00,
2013-01-27 18:11:00,37.0,37.0,29.72,SSE,164,0.0,0.0,99,0.00,,,0.05,,2013-01-28 00:11:00,
2013-01-27 18:21:00,37.0,37.0,29.72,SSE,164,0.0,0.0,99,0.00,,,0.05,,2013-01-28 00:21:00,
2013-01-27 18:32:00,37.0,37.0,29.73,SSE,164,0.0,0.0,99,0.00,,,0.05,,2013-01-28 00:32:00,
2013-01-27 18:42:00,37.0,37.0,29.73,SSE,164,0.0,0.0,99,0.00,,,0.05,,2013-01-28 00:42:00,
2013-01-27 18:52:00,37.0,37.0,29.74,SSE,164,0.0,0.0,99,0.00,,,0.05,,2013-01-28 00:52:00,
2013-01-27 19:01:00,37.0,37.0,29.75,SSE,164,0.0,0.0,99,0.00,,,0.05,,2013-01-28 01:01:00,
2013-01-27 19:11:00,37.0,37.0,29.75,SSE,164,0.0,0.0,99,0.00,,,0.05,,2013-01-28 01:11:00,
2013-01-27 19:22:00,37.0,37.0,29.75,SSE,164,0.0,0.0,99,0.00,,,0.05,,2013-01-28 01:22:00,
2013-01-27 19:32:00,36.0,36.0,29.75,SSE,164,0.0,0.0,99,0.00,,,0.05,,2013-01-28 01:32:00,
2013-01-27 19:42:00,36.0,36.0,29.75,SSE,164,0.0,0.0,99,0.00,,,0.05,,2013-01-28 01:42:00,
2013-01-27 19:52:00,37.0,37.0,29.75,SSE,164,0.0,0.0,99,0.00,,,0.05,,2013-01-28 01:52:00,
2013-01-27 20:02:00,36.0,36.0,29.75,SSE,164,0.0,0.0,99,0.00,,,0.05,,2013-01-28 02:02:00,
2013-01-27 20:11:00,36.0,36.0,29.75,SSE,164,0.0,0.0,99,0.00,,,0.05,,2013-01-28 02:11:00,
2013-01-27 20:22:00,36.0,36.0,29.74,SSE,164,0.0,0.0,99,0.00,,,0.05,,2013-01-28 02:22:00,
2013-01-27 20:32:00,36.0,36.0,29.75,SSE,164,0.0,0.0,99,0.00,,,0.05,,2013-01-28 02:32:00,
2013-01-27 20:42:00,36.0,36.0,29.75,SSE,164,0.0,0.0,99,0.00,,,0.05,,2013-01-28 02:42:00,
2013-01-27 20:52:00,36.0,36.0,29.74,SSE,164,0.0,0.0,99,0.00,,,0.05,,2013-01-28 02:52:00,
2013-01-27 21:02:00,36.0,36.0,29.76,SSE,164,0.0,0.0,99,0.00,,,0.05,,2013-01-28 03:02:00,
2013-01-27 21:11:00,36.0,36.0,29.76,SSE,164,0.0,0.0,99,0.00,,,0.05,,2013-01-28 03:11:00,
2013-01-27 21:21:00,35.0,35.0,29.76,SSE,164,0.0,0.0,99,0.00,,,0.05,,2013-01-28 03:21:00,
2013-01-27 21:32:00,35.0,35.0,29.76,SSE,164,0.0,0.0,99,0.00,,,0.05,,2013-01-28 03:32:00,
2013-01-27 21:41:00,35.0,35.0,29.76,SSE,164,0.0,0.0,99,0.00,,,0.05,,2013-01-28 03:41:00,
2013-01-27 21:53:00,35.0,35.0,29.77,SSE,164,0.0,0.0,99,0.00,,,0.05,,2013-01-28 03:53:00,
2013-01-27 22:01:00,35.0,35.0,29.77,SSE,164,0.0,0.0,99,0.00,,,0.05,,2013-01-28 04:01:00,
2013-01-27 22:11:00,35.0,35.0,29.77,SSE,164,0.0,0.0,99,0.00,,,0.05,,2013-01-28 04:11:00,
2013-01-27 22:21:00,35.0,35.0,29.77,SSE,164,0.0,0.0,99,0.00,,,0.05,,2013-01-28 04:21:00,
2013-01-27 22:32:00,35.0,35.0,29.77,SSE,164,0.0,0.0,99,0.00,,,0.05,,2013-01-28 04:32:00,
2013-01-27 22:41:00,35.0,35.0,29.77,SSE,164,0.0,0.0,99,0.00,,,0.05,,2013-01-28 04:41:00,
2013-01-27 22:52:00,35.0,35.0,29.76,NE,48,0.0,0.0,99,0.00,,,0.05,,2013-01-28 04:52:00,
2013-01-27 23:03:00,35.0,35.0,29.77,NE,48,0.0,0.0,99,0.00,,,0.05,,2013-01-28 05:03:00,
2013-01-27 23:11:00,35.0,35.0,29.77,NE,48,0.0,0.0,99,0.00,,,0.05,,2013-01-28 05:11:00,
2013-01-27 23:21:00,34.0,34.0,29.77,NE,48,0.0,0.0,99,0.00,,,0.05,,2013-01-28 05:21:00,
2013-01-27 23:31:00,35.0,35.0,29.78,NE,48,0.0,0.0,99,0.00,,,0.05,,2013-01-28 05:31:00,
2013-01-27 23:41:00,35.0,35.0,29.78,NE,48,0.0,0.0,99,0.00,,,0.05,,2013-01-28 05:41:00,
2013-01-27 23:52:00,35.0,35.0,29.78,NE,48,0.0,0.0,99,0.00,,,0.05,,2013-01-28 05:52:00,